Decoded Metar for CYPO ( in ) (IATA:) | Meteo·Mobile Aviation Weather
aviador You're here:

CYPO Decoded Metar

in
Report Time2018-11-19 02:32:00
UTC Time2018-11-19 02:45:29
Flight Rules ifr IFR
Wind280° at 11 Gusting to 18 kt
W.Decomp.*RWY 29: 10.8 kt HW 1.9 kt LCW
W.Rank280° ranks 10
Current wind is above 280° avg. (8.2)
Visibility4023 m
Phenomena:Light Snow
Clouds:Broken 031 Hf
Broken 055 Hf
Overcast 073 Hf
Expected CloudBase > 1,200 ft AGL from Temp-Dew spread
Ceiling3,100 ft
Temp-20°C
Dew Point-23°C (77% RH)
AAT-27.6°C
QNH1016 hPa
Raw Report
SPECI CYPO 190232Z AUTO 28011G18KT 2 1/2SM -SN BKN031 BKN055 OVC073 M20/M23 A2999 RMK SLP167=

Extra information for CYPO:More info

Social comments